Time;durP1;ratioP1;P1;durP2;ratioP2;P2;SDS_P1;SDS_P2;PMS_P1;PMS_P2;Temp;Humidity;BMP_temperature;BMP_pressure;BME280_temperature;BME280_humidity;BME280_pressure;Samples;Min_cycle;Max_cycle;Signal;HPM_P1;HPM_P2
2022/10/07 05:40:57;;;;;;;;;27.75;26.00;;;;;;;;5102730;27;15066;-75
2022/10/07 05:43:24;;;;;;;;;19.00;19.00;;;;;;;;5103303;28;13558;-74
2022/10/07 05:45:56;;;;;;;;;24.00;20.00;;;;;;;;5102868;28;13654;-74
2022/10/07 05:48:21;;;;;;;;;17.75;15.75;;;;;;;;5106774;28;11546;-74
2022/10/07 05:50:46;;;;;;;;;20.25;17.50;;;;;;;;5106129;28;12213;-73
2022/10/07 05:53:12;;;;;;;;;17.00;15.75;;;;;;;;5104897;28;8835;-73
2022/10/07 05:55:37;;;;;;;;;18.25;17.75;;;;;;;;5105826;28;8817;-72
2022/10/07 05:58:02;;;;;;;;;20.50;17.25;;;;;;;;5003126;27;10740;-69
2022/10/07 06:00:28;;;;;;;;;18.25;16.75;;;;;;;;5028034;28;8834;-77
2022/10/07 06:02:53;;;;;;;;;12.25;12.25;;;;;;;;5025024;28;8945;-78
2022/10/07 06:05:22;;;;;;;;;25.00;24.00;;;;;;;;5020019;28;13575;-71
2022/10/07 06:07:47;;;;;;;;;29.20;27.00;;;;;;;;5019703;28;14475;-74
2022/10/07 06:13:08;;;;;;;;;37.50;33.50;;;;;;;;5019618;28;14367;-72
2022/10/07 06:15:33;;;;;;;;;24.20;23.80;;;;;;;;5019651;28;13607;-72
2022/10/07 06:17:59;;;;;;;;;24.25;24.00;;;;;;;;5020619;28;13618;-72
2022/10/07 06:20:24;;;;;;;;;27.00;26.00;;;;;;;;5021997;28;13712;-74
2022/10/07 06:22:51;;;;;;;;;20.00;20.00;;;;;;;;5021963;28;13679;-73
2022/10/07 06:25:17;;;;;;;;;31.00;28.75;;;;;;;;5022074;28;14407;-69
2022/10/07 06:27:42;;;;;;;;;32.50;32.00;;;;;;;;5039577;28;13794;-72
2022/10/07 06:30:08;;;;;;;;;26.67;23.33;;;;;;;;5041928;28;13597;-72
2022/10/07 06:32:33;;;;;;;;;25.00;22.25;;;;;;;;5040721;28;13594;-72
2022/10/07 06:34:58;;;;;;;;;30.75;28.25;;;;;;;;5041680;28;13562;-73
2022/10/07 06:37:24;;;;;;;;;30.50;29.75;;;;;;;;5040246;28;13616;-73
2022/10/07 06:39:49;;;;;;;;;29.33;25.00;;;;;;;;5041093;28;14649;-72
2022/10/07 06:42:14;;;;;;;;;26.00;24.00;;;;;;;;5039628;28;13608;-71
2022/10/07 06:44:40;;;;;;;;;34.00;29.25;;;;;;;;5041536;28;13577;-71
2022/10/07 06:47:05;;;;;;;;;34.00;28.67;;;;;;;;5041797;28;13595;-74
2022/10/07 06:49:30;;;;;;;;;;;;;;;;;;5046730;28;11141;-74
2022/10/07 06:51:55;;;;;;;;;;;;;;;;;;5035458;28;7517;-75
2022/10/07 06:54:21;;;;;;;;;;;;;;;;;;5030597;28;7533;-77
2022/10/07 06:56:46;;;;;;;;;;;;;;;;;;5033491;28;7521;-76
2022/10/07 06:59:11;;;;;;;;;;;;;;;;;;5033734;28;7522;-74
2022/10/07 07:01:36;;;;;;;;;;;;;;;;;;5032192;28;7525;-74
2022/10/07 07:04:02;;;;;;;;;;;;;;;;;;5033591;28;8018;-76
2022/10/07 07:06:28;;;;;;;;;;;;;;;;;;5033455;28;7590;-74
2022/10/07 07:08:53;;;;;;;;;;;;;;;;;;5033673;28;7533;-74
2022/10/07 07:11:37;;;;;;;;;;;;;;;;;;5032708;28;7972;-75
2022/10/07 07:14:02;;;;;;;;;;;;;;;;;;5033291;28;7525;-73
2022/10/07 07:16:27;;;;;;;;;;;;;;;;;;5022533;28;8003;-73
2022/10/07 07:18:53;;;;;;;;;;;;;;;;;;5031939;28;7537;-75
2022/10/07 07:21:18;;;;;;;;;;;;;;;;;;5033340;28;7545;-74
2022/10/07 07:23:43;;;;;;;;;;;;;;;;;;5033271;28;7988;-74
2022/10/07 07:26:08;;;;;;;;;;;;;;;;;;5033404;28;7972;-74
2022/10/07 07:28:33;;;;;;;;;;;;;;;;;;5034142;28;7605;-74
2022/10/07 07:30:58;;;;;;;;;;;;;;;;;;5035309;28;7608;-74
2022/10/07 07:33:23;;;;;;;;;;;;;;;;;;5034269;28;7532;-74
2022/10/07 07:35:49;;;;;;;;;;;;;;;;;;5033443;28;7521;-73
2022/10/07 07:38:14;;;;;;;;;;;;;;;;;;5033192;28;7524;-74
2022/10/07 07:40:39;;;;;;;;;;;;;;;;;;5033050;28;7538;-75
2022/10/07 07:43:05;;;;;;;;;;;;;;;;;;5032912;28;7521;-74
2022/10/07 07:45:31;;;;;;;;;;;;;;;;;;5030514;28;7545;-73
2022/10/07 07:47:57;;;;;;;;;;;;;;;;;;5032420;28;7612;-74
2022/10/07 07:50:25;;;;;;;;;;;;;;;;;;5032624;28;7529;-73
2022/10/07 07:52:51;;;;;;;;;;;;;;;;;;5032641;28;7513;-73
2022/10/07 07:55:17;;;;;;;;;;;;;;;;;;5032615;28;7543;-72
2022/10/07 07:57:42;;;;;;;;;;;;;;;;;;5032760;28;7547;-72
2022/10/07 08:00:07;;;;;;;;;;;;;;;;;;5032701;28;7529;-73
2022/10/07 08:02:33;;;;;;;;;25.60;22.00;;;;;;;;5030328;28;8044;-73
2022/10/07 08:04:58;;;;;;;;;25.25;24.50;;;;;;;;5031140;28;8835;-72
2022/10/07 08:07:25;;;;;;;;;40.00;35.50;;;;;;;;5045781;28;9569;-72
2022/10/07 08:09:50;;;;;;;;;22.00;22.00;;;;;;;;5029011;28;8864;-73
2022/10/07 08:12:16;;;;;;;;;30.25;25.25;;;;;;;;5029687;28;11454;-74
2022/10/07 08:14:42;;;;;;;;;32.25;30.50;;;;;;;;5030290;28;9507;-74
2022/10/07 08:17:07;;;;;;;;;25.25;24.00;;;;;;;;5030385;28;8925;-73
2022/10/07 08:19:32;;;;;;;;;23.00;21.50;;;;;;;;5030507;28;8811;-74
2022/10/07 08:21:58;;;;;;;;;25.50;25.50;;;;;;;;5027915;28;9579;-72
2022/10/07 08:24:24;;;;;;;;;27.00;25.25;;;;;;;;5020417;28;8814;-71
2022/10/07 08:26:50;;;;;;;;;23.25;21.75;;;;;;;;5018738;28;8868;-74
2022/10/07 08:29:15;;;;;;;;;27.25;25.75;;;;;;;;5040322;28;11510;-72
2022/10/07 08:31:41;;;;;;;;;26.75;26.75;;;;;;;;5027744;28;8936;-70
2022/10/07 08:34:07;;;;;;;;;27.00;26.00;;;;;;;;5027695;28;8833;-70
2022/10/07 08:36:33;;;;;;;;;26.25;25.00;;;;;;;;5026513;28;9693;-72
2022/10/07 08:38:58;;;;;;;;;32.25;29.50;;;;;;;;5024368;28;13557;-71
2022/10/07 08:41:33;;;;;;;;;31.50;26.50;;;;;;;;5022190;28;14248;-71
2022/10/07 08:44:05;;;;;;;;;26.25;26.00;;;;;;;;5029235;28;12254;-72
2022/10/07 08:46:31;;;;;;;;;23.00;22.00;;;;;;;;5029709;28;9920;-70
2022/10/07 08:49:04;;;;;;;;;26.75;22.25;;;;;;;;5026978;28;13530;-71
2022/10/07 08:51:37;;;;;;;;;24.75;23.00;;;;;;;;5027876;28;9705;-69
2022/10/07 08:54:03;;;;;;;;;21.67;20.67;;;;;;;;5029365;28;9568;-76
2022/10/07 08:56:30;;;;;;;;;24.67;21.67;;;;;;;;5029191;28;9354;-68
2022/10/07 08:58:59;;;;;;;;;21.25;19.75;;;;;;;;5029288;28;8810;-69
2022/10/07 09:01:30;;;;;;;;;22.50;19.75;;;;;;;;5027447;28;8817;-68
2022/10/07 09:04:14;;;;;;;;;22.25;19.50;;;;;;;;5029586;28;8947;-72
2022/10/07 09:06:46;;;;;;;;;19.50;19.00;;;;;;;;5028634;28;8848;-68
2022/10/07 09:09:14;;;;;;;;;20.50;20.50;;;;;;;;5029039;28;9054;-68
2022/10/07 09:11:41;;;;;;;;;19.75;18.00;;;;;;;;5028012;28;8868;-70
2022/10/07 09:14:27;;;;;;;;;16.25;15.00;;;;;;;;5028508;28;8809;-69
2022/10/07 09:16:53;;;;;;;;;23.50;21.50;;;;;;;;5027645;28;8871;-69
2022/10/07 09:19:25;;;;;;;;;22.25;20.00;;;;;;;;5029549;28;8916;-70
2022/10/07 09:21:50;;;;;;;;;19.75;19.75;;;;;;;;5023880;28;9609;-70
2022/10/07 09:24:18;;;;;;;;;25.00;22.33;;;;;;;;5020216;28;8839;-69
2022/10/07 09:26:44;;;;;;;;;20.75;20.75;;;;;;;;5023605;28;8788;-68
2022/10/07 09:29:10;;;;;;;;;17.67;16.33;;;;;;;;5022730;28;8854;-69
2022/10/07 09:31:35;;;;;;;;;25.50;24.75;;;;;;;;5013396;28;13694;-72
2022/10/07 09:34:00;;;;;;;;;21.00;20.00;;;;;;;;5009115;28;8795;-72
2022/10/07 09:36:26;;;;;;;;;23.67;21.33;;;;;;;;5009272;28;8818;-72
2022/10/07 09:38:52;;;;;;;;;27.00;27.00;;;;;;;;5009046;28;9534;-72
2022/10/07 09:41:34;;;;;;;;;91.75;83.25;;;;;;;;5009257;28;8975;-71
2022/10/07 09:44:10;;;;;;;;;61.75;49.25;;;;;;;;5009021;28;11594;-72
2022/10/07 09:46:50;;;;;;;;;19.00;18.50;;;;;;;;5009007;28;9688;-72
2022/10/07 09:49:30;;;;;;;;;27.25;26.00;;;;;;;;5009423;28;8850;-72
2022/10/07 09:51:59;;;;;;;;;19.40;18.60;;;;;;;;5010226;28;8790;-72
2022/10/07 09:54:29;;;;;;;;;24.60;23.20;;;;;;;;5009157;28;8937;-72
2022/10/07 09:56:56;;;;;;;;;23.60;23.20;;;;;;;;5019813;28;8831;-72
2022/10/07 09:59:21;;;;;;;;;19.60;19.20;;;;;;;;5027168;28;9608;-72
2022/10/07 10:02:07;;;;;;;;;20.00;18.50;;;;;;;;5028540;28;8815;-72
2022/10/07 10:04:34;;;;;;;;;21.20;21.00;;;;;;;;5031348;28;8854;-72
2022/10/07 10:07:04;;;;;;;;;19.80;18.40;;;;;;;;5028195;28;8949;-72
2022/10/07 10:09:30;;;;;;;;;20.00;17.80;;;;;;;;5028466;28;8851;-73
2022/10/07 10:12:07;;;;;;;;;18.20;18.00;;;;;;;;5028708;28;8820;-72
2022/10/07 10:14:41;;;;;;;;;17.60;16.60;;;;;;;;5026572;28;8896;-72
2022/10/07 10:17:19;;;;;;;;;16.80;16.80;;;;;;;;5017537;28;8790;-72
2022/10/07 10:19:45;;;;;;;;;19.60;19.20;;;;;;;;5009003;28;8825;-72
2022/10/07 10:22:21;;;;;;;;;17.25;16.75;;;;;;;;5008449;28;8822;-72
2022/10/07 10:27:35;;;;;;;;;19.00;19.00;;;;;;;;5027638;28;8800;-71
2022/10/07 10:30:03;;;;;;;;;18.40;17.00;;;;;;;;5030781;28;9673;-71
2022/10/07 10:32:44;;;;;;;;;18.40;17.80;;;;;;;;5032381;28;8795;-74
2022/10/07 10:35:24;;;;;;;;;13.00;13.00;;;;;;;;5032437;28;8792;-74
2022/10/07 10:37:58;;;;;;;;;15.80;14.80;;;;;;;;5030470;28;8800;-73
2022/10/07 10:40:34;;;;;;;;;18.00;16.60;;;;;;;;5030823;28;8831;-73
2022/10/07 10:43:19;;;;;;;;;16.00;15.40;;;;;;;;5031566;28;8812;-72
2022/10/07 10:46:07;;;;;;;;;20.40;19.40;;;;;;;;5031557;28;8961;-75
2022/10/07 10:48:40;;;;;;;;;17.40;16.20;;;;;;;;5029303;28;8825;-73
2022/10/07 10:51:30;;;;;;;;;17.75;17.75;;;;;;;;5025620;28;8916;-73
2022/10/07 10:54:05;;;;;;;;;17.50;16.25;;;;;;;;5031044;28;8840;-73
2022/10/07 10:56:43;;;;;;;;;18.75;17.75;;;;;;;;5030787;28;8844;-71
2022/10/07 10:59:08;;;;;;;;;18.50;18.00;;;;;;;;5031588;28;8826;-70
2022/10/07 11:01:36;;;;;;;;;19.67;18.67;;;;;;;;5031352;28;9428;-69
2022/10/07 11:04:07;;;;;;;;;19.50;19.50;;;;;;;;5031600;28;8835;-70
2022/10/07 11:06:34;;;;;;;;;15.75;15.75;;;;;;;;5029527;28;8881;-73
2022/10/07 11:09:01;;;;;;;;;24.00;23.00;;;;;;;;5031483;28;9688;-72
2022/10/07 11:11:26;;;;;;;;;18.25;18.00;;;;;;;;5029610;28;8821;-69
2022/10/07 11:13:57;;;;;;;;;19.67;18.67;;;;;;;;5030960;28;8813;-68
2022/10/07 11:16:29;;;;;;;;;20.25;19.00;;;;;;;;5028310;28;10888;-69
2022/10/07 11:18:59;;;;;;;;;18.25;16.75;;;;;;;;5031396;28;8812;-68
2022/10/07 11:21:43;;;;;;;;;21.75;19.25;;;;;;;;5030645;28;8824;-69
2022/10/07 11:24:18;;;;;;;;;18.75;16.75;;;;;;;;5031074;28;8831;-70
2022/10/07 11:26:55;;;;;;;;;17.00;15.75;;;;;;;;5029346;28;8817;-69
2022/10/07 11:29:35;;;;;;;;;25.75;20.00;;;;;;;;5030527;28;8887;-69
2022/10/07 11:32:03;;;;;;;;;23.50;21.50;;;;;;;;5030657;28;9642;-69
2022/10/07 11:34:43;;;;;;;;;18.00;18.00;;;;;;;;5031034;28;8816;-69
2022/10/07 11:37:27;;;;;;;;;24.25;21.50;;;;;;;;5028601;28;8810;-70
2022/10/07 11:39:52;;;;;;;;;20.75;19.75;;;;;;;;5030691;28;8817;-73
2022/10/07 11:42:26;;;;;;;;;22.00;20.33;;;;;;;;5267731;23;8944;-70
2022/10/07 11:44:59;;;;;;;;;19.00;18.50;;;;;;;;4988578;28;8995;-71
2022/10/07 11:47:33;;;;;;;;;21.25;20.50;;;;;;;;4989259;28;9533;-70
2022/10/07 11:50:13;;;;;;;;;24.00;20.75;;;;;;;;4989932;28;8842;-70
2022/10/07 11:52:41;;;;;;;;;18.00;18.00;;;;;;;;4990845;28;8811;-69
2022/10/07 11:55:14;;;;;;;;;15.50;14.25;;;;;;;;4991645;28;8830;-68
2022/10/07 11:57:42;;;;;;;;;19.00;18.50;;;;;;;;4992452;28;8900;-68
2022/10/07 12:00:22;;;;;;;;;18.00;18.00;;;;;;;;5005918;28;8802;-68
2022/10/07 12:02:47;;;;;;;;;20.67;20.67;;;;;;;;4990706;28;9536;-70
2022/10/07 12:05:32;;;;;;;;;17.00;15.67;;;;;;;;4989268;28;8896;-70
2022/10/07 12:07:59;;;;;;;;;21.00;18.00;;;;;;;;4988894;28;11571;-69
2022/10/07 12:10:33;;;;;;;;;19.00;18.25;;;;;;;;4989100;28;9027;-68
2022/10/07 12:12:58;;;;;;;;;21.00;19.00;;;;;;;;4989378;28;8807;-70
2022/10/07 12:15:44;;;;;;;;;20.67;19.00;;;;;;;;4991201;28;8814;-70
2022/10/07 12:18:09;;;;;;;;;17.67;15.33;;;;;;;;4995565;28;8822;-71
2022/10/07 12:20:49;;;;;;;;;22.67;20.00;;;;;;;;4992483;28;8998;-71
2022/10/07 12:23:18;;;;;;;;;17.00;15.33;;;;;;;;4987913;28;9700;-69
2022/10/07 12:25:45;;;;;;;;;16.67;16.67;;;;;;;;4991720;28;9091;-67
2022/10/07 12:28:22;;;;;;;;;19.00;18.67;;;;;;;;5010288;28;9075;-71
2022/10/07 12:30:54;;;;;;;;;22.00;18.00;;;;;;;;5010014;28;9220;-69
2022/10/07 12:33:42;;;;;;;;;20.67;19.67;;;;;;;;5010250;28;9113;-69
2022/10/07 12:36:20;;;;;;;;;15.00;15.00;;;;;;;;5008749;28;9141;-71
2022/10/07 12:38:54;;;;;;;;;16.67;16.00;;;;;;;;5010305;28;8811;-72
2022/10/07 12:41:24;;;;;;;;;17.67;16.67;;;;;;;;5008956;28;8895;-70
2022/10/07 12:43:54;;;;;;;;;17.00;17.00;;;;;;;;5010676;28;9712;-70
2022/10/07 12:46:20;;;;;;;;;17.00;15.33;;;;;;;;4989882;28;8927;-71
2022/10/07 12:48:50;;;;;;;;;15.00;15.00;;;;;;;;4989558;28;9042;-70
2022/10/07 12:51:19;;;;;;;;;18.33;16.67;;;;;;;;4987508;28;8958;-68
2022/10/07 12:53:46;;;;;;;;;15.00;15.00;;;;;;;;4989480;28;9373;-74
2022/10/07 12:56:25;;;;;;;;;18.67;18.00;;;;;;;;4994801;28;9062;-68
2022/10/07 13:02:08;;;;;;;;;20.00;16.00;;;;;;;;5009614;28;8946;-70
2022/10/07 13:04:42;;;;;;;;;17.33;16.33;;;;;;;;5006210;28;13557;-67
2022/10/07 13:07:16;;;;;;;;;14.67;13.00;;;;;;;;5009724;28;9236;-69
2022/10/07 13:09:44;;;;;;;;;15.00;15.00;;;;;;;;5009685;28;9086;-70
2022/10/07 13:12:14;;;;;;;;;17.33;14.33;;;;;;;;4995829;28;9004;-68
2022/10/07 13:15:03;;;;;;;;;18.00;17.00;;;;;;;;4989711;28;9042;-69
2022/10/07 13:17:28;;;;;;;;;16.33;15.00;;;;;;;;4989091;28;9211;-71
2022/10/07 13:20:00;;;;;;;;;16.00;16.00;;;;;;;;4988376;28;9191;-71
2022/10/07 13:22:25;;;;;;;;;15.67;15.00;;;;;;;;4987781;28;8825;-68
2022/10/07 13:24:53;;;;;;;;;18.00;18.00;;;;;;;;4988105;28;9164;-69
2022/10/07 13:27:33;;;;;;;;;18.33;17.33;;;;;;;;4989593;28;8929;-69
2022/10/07 13:29:59;;;;;;;;;16.00;15.00;;;;;;;;5004063;28;9165;-70
2022/10/07 13:32:29;;;;;;;;;17.00;15.33;;;;;;;;4989551;28;9408;-70
2022/10/07 13:34:56;;;;;;;;;19.67;16.00;;;;;;;;4988542;28;9150;-69
2022/10/07 13:37:27;;;;;;;;;16.00;15.00;;;;;;;;4979382;28;9181;-69
2022/10/07 13:39:53;;;;;;;;;14.67;14.67;;;;;;;;4985881;28;9823;-71
2022/10/07 13:42:20;;;;;;;;;15.00;14.00;;;;;;;;4987837;28;8969;-70
2022/10/07 13:44:46;;;;;;;;;14.67;14.67;;;;;;;;4979560;28;9234;-70
2022/10/07 13:47:18;;;;;;;;;15.00;15.00;;;;;;;;4978308;28;9058;-69
2022/10/07 13:49:45;;;;;;;;;16.67;15.00;;;;;;;;4979830;28;8830;-71
2022/10/07 13:52:19;;;;;;;;;17.00;15.00;;;;;;;;4978195;28;9358;-72
2022/10/07 13:54:51;;;;;;;;;15.25;14.25;;;;;;;;4979323;28;9208;-71
2022/10/07 13:57:17;;;;;;;;;14.00;13.00;;;;;;;;4988189;28;9354;-68
2022/10/07 13:59:43;;;;;;;;;15.67;14.67;;;;;;;;4987443;28;9222;-68
2022/10/07 14:02:11;;;;;;;;;15.67;13.67;;;;;;;;4991149;28;9996;-69
2022/10/07 14:04:48;;;;;;;;;13.33;13.33;;;;;;;;4992047;28;8984;-68
2022/10/07 14:07:18;;;;;;;;;11.67;11.67;;;;;;;;4982413;28;9275;-71
2022/10/07 14:09:45;;;;;;;;;13.00;13.00;;;;;;;;4982798;28;9414;-69
2022/10/07 14:12:11;;;;;;;;;17.00;14.33;;;;;;;;4990507;28;9146;-68
2022/10/07 14:14:38;;;;;;;;;14.00;14.00;;;;;;;;4991791;28;9322;-68
2022/10/07 14:17:09;;;;;;;;;12.67;12.67;;;;;;;;4990335;28;8928;-68
2022/10/07 14:19:35;;;;;;;;;14.67;11.33;;;;;;;;4991729;28;9071;-68
2022/10/07 14:22:01;;;;;;;;;14.67;12.67;;;;;;;;4993091;28;8960;-69
2022/10/07 14:24:27;;;;;;;;;13.00;13.00;;;;;;;;4992838;28;8814;-69
2022/10/07 14:26:52;;;;;;;;;14.00;14.00;;;;;;;;5003736;28;9100;-67
2022/10/07 14:29:21;;;;;;;;;13.33;13.33;;;;;;;;5016147;28;8889;-67
2022/10/07 14:37:26;;;;;;;;;10.25;8.50;;;;;;;;4981999;28;8900;-69
2022/10/07 14:39:52;;;;;;;;;12.00;9.00;;;;;;;;4984974;28;9061;-72
2022/10/07 14:42:29;;;;;;;;;12.67;8.33;;;;;;;;4981482;28;9675;-70
2022/10/07 14:44:55;;;;;;;;;9.00;9.00;;;;;;;;4988823;28;8826;-68
2022/10/07 14:47:23;;;;;;;;;9.50;9.50;;;;;;;;4989190;28;9114;-68
2022/10/07 14:49:52;;;;;;;;;15.33;12.00;;;;;;;;4989911;28;8900;-68
2022/10/07 14:52:30;;;;;;;;;13.67;9.67;;;;;;;;4990093;28;9914;-69
2022/10/07 14:55:10;;;;;;;;;14.00;12.00;;;;;;;;4988552;28;9860;-68
2022/10/07 14:57:35;;;;;;;;;9.00;9.00;;;;;;;;4990507;28;9029;-67
2022/10/07 15:00:01;;;;;;;;;9.67;9.67;;;;;;;;4990433;28;9721;-69
2022/10/07 15:02:28;;;;;;;;;10.67;10.33;;;;;;;;4991995;28;8900;-68
2022/10/07 15:04:53;;;;;;;;;8.00;8.00;;;;;;;;4992247;28;8786;-69
2022/10/07 15:07:20;;;;;;;;;13.33;11.67;;;;;;;;4990449;28;9228;-68
2022/10/07 15:09:45;;;;;;;;;10.67;8.00;;;;;;;;4991981;28;8957;-68
2022/10/07 15:12:11;;;;;;;;;14.33;11.67;;;;;;;;4991242;28;9141;-69
2022/10/07 15:14:36;;;;;;;;;8.75;8.50;;;;;;;;4991968;28;9610;-69
2022/10/07 15:17:02;;;;;;;;;8.00;8.00;;;;;;;;4991857;28;8802;-68
2022/10/07 15:19:27;;;;;;;;;8.67;8.67;;;;;;;;4991605;28;8799;-69
2022/10/07 15:21:52;;;;;;;;;8.00;8.00;;;;;;;;4992034;28;8799;-68
2022/10/07 15:24:18;;;;;;;;;9.00;9.00;;;;;;;;4991791;28;8802;-69
2022/10/07 15:26:45;;;;;;;;;9.00;9.00;;;;;;;;4991793;28;8929;-68
2022/10/07 15:29:12;;;;;;;;;10.00;10.00;;;;;;;;4991415;28;8811;-68
2022/10/07 15:31:37;;;;;;;;;11.67;9.33;;;;;;;;4991328;28;9440;-68
2022/10/07 15:34:02;;;;;;;;;11.00;10.33;;;;;;;;4991167;28;10110;-69
2022/10/07 15:36:28;;;;;;;;;12.75;12.75;;;;;;;;4991115;28;8805;-68
2022/10/07 15:38:54;;;;;;;;;12.33;12.33;;;;;;;;4991317;28;8783;-68
2022/10/07 15:41:31;;;;;;;;;11.67;11.67;;;;;;;;4991033;28;9520;-69
2022/10/07 15:44:01;;;;;;;;;13.33;12.00;;;;;;;;4990004;28;8941;-69
2022/10/07 15:46:26;;;;;;;;;13.33;12.33;;;;;;;;4991862;28;9532;-69
2022/10/07 15:48:53;;;;;;;;;15.00;13.67;;;;;;;;4991107;28;9431;-69
2022/10/07 15:51:19;;;;;;;;;11.67;10.00;;;;;;;;4990962;28;8822;-69
2022/10/07 15:53:44;;;;;;;;;14.00;11.67;;;;;;;;4990834;28;9154;-68
2022/10/07 15:56:10;;;;;;;;;13.33;10.00;;;;;;;;4989682;28;8848;-69
2022/10/07 15:58:35;;;;;;;;;9.00;8.00;;;;;;;;4991074;28;8813;-69
2022/10/07 16:01:04;;;;;;;;;8.00;8.00;;;;;;;;4990811;28;8877;-69
2022/10/07 16:03:37;;;;;;;;;12.00;12.00;;;;;;;;4990579;28;8794;-69
2022/10/07 16:06:02;;;;;;;;;13.00;12.00;;;;;;;;4990668;28;9295;-68
2022/10/07 16:08:28;;;;;;;;;13.00;13.00;;;;;;;;4990763;28;9490;-69
2022/10/07 16:10:53;;;;;;;;;11.75;11.75;;;;;;;;4990718;28;8937;-69
2022/10/07 16:13:18;;;;;;;;;10.50;10.50;;;;;;;;4990707;28;8818;-69
2022/10/07 16:15:54;;;;;;;;;11.00;10.00;;;;;;;;4990647;28;8866;-70
2022/10/07 16:18:19;;;;;;;;;13.67;13.33;;;;;;;;4990602;28;8795;-69
2022/10/07 16:20:44;;;;;;;;;11.67;11.67;;;;;;;;4990603;28;9303;-69
2022/10/07 16:23:09;;;;;;;;;16.00;14.67;;;;;;;;4989671;28;8896;-68
2022/10/07 16:25:35;;;;;;;;;14.00;11.33;;;;;;;;4990098;28;8806;-68
2022/10/07 16:30:49;;;;;;;;;13.00;9.67;;;;;;;;4990189;28;8826;-68
2022/10/07 16:33:14;;;;;;;;;11.00;10.00;;;;;;;;4990269;28;9199;-68
2022/10/07 16:35:41;;;;;;;;;13.33;12.67;;;;;;;;4986862;28;13514;-68
2022/10/07 16:38:06;;;;;;;;;13.25;12.75;;;;;;;;4990057;28;8798;-68
2022/10/07 16:40:31;;;;;;;;;15.33;14.00;;;;;;;;4990043;28;9495;-69
2022/10/07 16:42:58;;;;;;;;;14.00;13.00;;;;;;;;4990169;28;8787;-68
2022/10/07 16:45:23;;;;;;;;;16.33;15.33;;;;;;;;4990359;28;9509;-68
2022/10/07 16:47:48;;;;;;;;;15.50;15.50;;;;;;;;4989890;28;9388;-69
2022/10/07 16:50:14;;;;;;;;;20.25;16.75;;;;;;;;4989666;28;8924;-68
2022/10/07 16:52:40;;;;;;;;;16.50;14.75;;;;;;;;4989918;28;8817;-69
2022/10/07 16:55:05;;;;;;;;;17.50;15.25;;;;;;;;4989961;28;8815;-69
2022/10/07 16:57:31;;;;;;;;;15.25;13.25;;;;;;;;4989564;28;8794;-70
2022/10/07 16:59:56;;;;;;;;;16.50;15.25;;;;;;;;4994927;28;8803;-69
2022/10/07 17:02:21;;;;;;;;;13.75;13.75;;;;;;;;4989712;28;8822;-69
2022/10/07 17:04:47;;;;;;;;;22.75;20.00;;;;;;;;4989623;28;9497;-69
2022/10/07 17:07:12;;;;;;;;;16.25;16.25;;;;;;;;4989354;28;9541;-68
2022/10/07 17:09:37;;;;;;;;;13.00;12.00;;;;;;;;4989474;28;8865;-68
2022/10/07 17:12:05;;;;;;;;;16.75;14.25;;;;;;;;4989022;28;8791;-69
2022/10/07 17:14:32;;;;;;;;;19.25;16.00;;;;;;;;4989282;28;8799;-68
2022/10/07 17:16:58;;;;;;;;;6.75;6.75;;;;;;;;4989206;28;9681;-69
2022/10/07 17:19:24;;;;;;;;;13.25;13.00;;;;;;;;4989122;28;9617;-70
2022/10/07 17:21:50;;;;;;;;;16.25;15.25;;;;;;;;4989353;28;8818;-68
2022/10/07 17:24:16;;;;;;;;;18.75;15.25;;;;;;;;4989256;28;9739;-69
2022/10/07 17:26:42;;;;;;;;;15.75;15.75;;;;;;;;4989140;28;8810;-68
2022/10/07 17:29:09;;;;;;;;;20.25;17.25;;;;;;;;4988813;28;9986;-69
2022/10/07 17:31:37;;;;;;;;;20.00;15.00;;;;;;;;4988827;28;8823;-68
2022/10/07 17:34:03;;;;;;;;;22.25;17.50;;;;;;;;4989093;28;10044;-68
2022/10/07 17:36:29;;;;;;;;;22.00;21.25;;;;;;;;4985245;28;14246;-68
2022/10/07 17:38:55;;;;;;;;;24.00;21.25;;;;;;;;4988897;28;8814;-68
2022/10/07 17:41:21;;;;;;;;;30.50;29.00;;;;;;;;4988695;28;8795;-69
2022/10/07 17:43:47;;;;;;;;;25.00;24.00;;;;;;;;4987743;28;12304;-69
2022/10/07 17:46:13;;;;;;;;;21.00;19.50;;;;;;;;4987266;28;10396;-68
2022/10/07 17:48:49;;;;;;;;;25.25;23.00;;;;;;;;4988867;28;8815;-68
2022/10/07 17:51:15;;;;;;;;;24.00;22.00;;;;;;;;4988767;28;10276;-68
2022/10/07 17:53:41;;;;;;;;;22.00;19.00;;;;;;;;4984215;28;14322;-70
2022/10/07 17:56:08;;;;;;;;;20.75;19.75;;;;;;;;4984369;28;14272;-69
2022/10/07 17:58:34;;;;;;;;;21.00;21.00;;;;;;;;4988952;28;9901;-70
2022/10/07 18:01:03;;;;;;;;;21.25;21.25;;;;;;;;4989438;28;10007;-69
2022/10/07 18:03:28;;;;;;;;;19.25;18.00;;;;;;;;4989284;28;10002;-68
2022/10/07 18:05:54;;;;;;;;;24.00;22.00;;;;;;;;4988994;28;10376;-68
2022/10/07 18:08:19;;;;;;;;;23.75;21.00;;;;;;;;4988919;28;9639;-68
2022/10/07 18:10:48;;;;;;;;;22.00;22.00;;;;;;;;4988991;28;9564;-68
2022/10/07 18:15:58;;;;;;;;;21.00;19.50;;;;;;;;4988996;28;10543;-68
2022/10/07 18:18:23;;;;;;;;;23.50;22.75;;;;;;;;4987376;28;10347;-69
2022/10/07 18:20:50;;;;;;;;;24.00;24.00;;;;;;;;4988613;28;10743;-69
2022/10/07 18:23:15;;;;;;;;;27.00;26.00;;;;;;;;4988706;28;8814;-69
2022/10/07 18:25:41;;;;;;;;;29.50;23.50;;;;;;;;4988811;28;10442;-68
2022/10/07 18:28:06;;;;;;;;;30.00;24.00;;;;;;;;4988891;28;8815;-69
2022/10/07 18:30:32;;;;;;;;;25.75;23.50;;;;;;;;4988814;28;8853;-68
2022/10/07 18:32:57;;;;;;;;;29.25;27.50;;;;;;;;4988736;28;9584;-68
2022/10/07 18:35:22;;;;;;;;;32.50;27.25;;;;;;;;4987207;28;8833;-69
2022/10/07 18:37:50;;;;;;;;;29.50;25.50;;;;;;;;4988768;28;8900;-69
2022/10/07 18:40:15;;;;;;;;;29.50;29.25;;;;;;;;4988695;28;8819;-68
2022/10/07 18:42:40;;;;;;;;;29.75;28.50;;;;;;;;4989038;28;10634;-68
2022/10/07 18:45:06;;;;;;;;;32.75;30.00;;;;;;;;4988764;28;9509;-69
2022/10/07 18:47:31;;;;;;;;;30.75;29.00;;;;;;;;4990488;28;8921;-69
2022/10/07 18:49:57;;;;;;;;;27.75;27.75;;;;;;;;4991995;28;8806;-68
2022/10/07 18:52:22;;;;;;;;;28.00;24.75;;;;;;;;4992086;28;8909;-68
2022/10/07 18:54:47;;;;;;;;;33.25;28.50;;;;;;;;4991805;28;8810;-68
2022/10/07 18:57:12;;;;;;;;;30.75;29.75;;;;;;;;4991701;28;8853;-68
2022/10/07 18:59:38;;;;;;;;;30.50;29.50;;;;;;;;4991824;28;8806;-67
2022/10/07 19:02:03;;;;;;;;;38.00;31.75;;;;;;;;4991557;28;8790;-69
2022/10/07 19:04:29;;;;;;;;;36.50;33.50;;;;;;;;4991486;28;8908;-69
2022/10/07 19:06:55;;;;;;;;;35.75;30.50;;;;;;;;4991499;28;8798;-69
2022/10/07 19:09:20;;;;;;;;;37.50;33.00;;;;;;;;4987970;28;13707;-68
2022/10/07 19:11:46;;;;;;;;;34.25;31.75;;;;;;;;4991447;28;8810;-68
2022/10/07 19:14:11;;;;;;;;;33.25;29.50;;;;;;;;4991456;28;9636;-68
2022/10/07 19:16:38;;;;;;;;;33.75;32.00;;;;;;;;4991425;28;8822;-68
2022/10/07 19:19:07;;;;;;;;;34.25;31.00;;;;;;;;4993181;28;9548;-69
2022/10/07 19:21:35;;;;;;;;;36.75;33.50;;;;;;;;4998436;28;11283;-68
2022/10/07 19:24:01;;;;;;;;;36.00;32.75;;;;;;;;4991687;28;11590;-68
2022/10/07 19:26:28;;;;;;;;;32.25;32.00;;;;;;;;4991736;28;11506;-69
2022/10/07 19:28:54;;;;;;;;;34.00;32.75;;;;;;;;4991338;28;11503;-69
2022/10/07 19:31:21;;;;;;;;;32.50;32.00;;;;;;;;4991577;28;11228;-69
2022/10/07 19:33:49;;;;;;;;;33.00;30.25;;;;;;;;4991414;28;8810;-69
2022/10/07 19:36:14;;;;;;;;;39.75;32.00;;;;;;;;4991317;28;11492;-69
2022/10/07 19:38:44;;;;;;;;;36.50;32.25;;;;;;;;4991377;28;11219;-68
2022/10/07 19:41:11;;;;;;;;;36.00;32.00;;;;;;;;4991144;28;8806;-69
2022/10/07 19:43:37;;;;;;;;;41.00;33.25;;;;;;;;5017775;23;13493;-73
2022/10/07 19:46:03;;;;;;;;;38.50;34.00;;;;;;;;5030456;28;11455;-72
2022/10/07 19:48:31;;;;;;;;;35.00;32.00;;;;;;;;5030120;28;11556;-72
2022/10/07 19:50:59;;;;;;;;;35.00;29.75;;;;;;;;5030216;28;8975;-72
